Gregory, Arkansas
Current Conditions -  °F | °C
As of 1:56 PM on Friday 31 Oct 2014 (Local Time) from KSRC Reporting Station
Broken Clouds Broken Clouds  
Wind Chill: 60°   Ceiling: 4500
Heat Index: 60°   Visibility: 10mi
Dew Point: 40°   Wind: 10mph
Humidity: 47%   Direction: 340°NNW
Pressure: 30.21"   Gusts: 21mph
Location:  35.16°N, 91.34°W
Report Text: KSRC 311856Z AUTO 34009G18KT 10SM BKN045 16/04 A3021 RMK AO2 SLP237 T01560044 TSNO
Loading
Personal Weather Stations






























Interactive Weather Map New forecast layout! Learn more

10-Day Weather Forecast

Advertisements
Track Severe Weather on mobile